YRI weather

Rivière-du-Loup Airport
Rivière-du-Loup, Quebec, Canada

Public forecast

Using degrees Celsius for public forecast. Weather courtesy of forecast.io.

Closest aviation weather report (METAR) to Rivière-du-Loup Airport

Closest report is Northern Aroostook Regional Airport, 59.0 nm (109.3 km) ESE. Retrieved 2020/04/05 05:53 UTC (35 minutes ago):

KFVE 050553Z AUTO 31003KT 10SM OVC047 03/M03 A2998 RMK AO2 SLP158 T00281028 10061 20028 56003

Closest aviation forecast (TAF) to Rivière-du-Loup Airport

Forecast is more than 12 hours old.

Closest forecast is Charlevoix Airport, 27.7 nm (51.3 km) WSW. Retrieved 2018/06/10 18:00 UTC (2 years ago):

TAF CYML 101730Z 1018/1106 12005KT P6SM FEW060 FM102100 14006KT P6SM SCT080 BECMG 1021/1023 VRB03KT RMK NXT FCST BY 110000Z